Time;durP1;ratioP1;P1;durP2;ratioP2;P2;SDS_P1;SDS_P2;PMS_P1;PMS_P2;Temp;Humidity;BMP_temperature;BMP_pressure;BME280_temperature;BME280_humidity;BME280_pressure;Samples;Min_cycle;Max_cycle;Signal;HPM_P1;HPM_P2
2022/08/20 00:01:30;;;;;;;15.60;6.40;;;;;;;21.82;81.06;99804.66;105942;1268;23273;-52
2022/08/20 00:04:04;;;;;;;17.70;6.60;;;;;;;21.81;81.14;99803.77;106073;1268;22682;-52
2022/08/20 00:06:36;;;;;;;17.00;5.60;;;;;;;21.76;81.14;99804.66;106062;1268;25518;-51
2022/08/20 00:09:08;;;;;;;18.60;6.00;;;;;;;21.76;81.23;99802.20;106032;1268;24332;-50
2022/08/20 00:11:39;;;;;;;15.00;6.10;;;;;;;21.74;81.33;99800.69;106086;1267;24301;-49
2022/08/20 00:14:11;;;;;;;14.40;5.80;;;;;;;21.72;81.29;99807.80;106065;1270;23215;-49
2022/08/20 00:16:43;;;;;;;13.60;5.30;;;;;;;21.69;81.39;99808.41;106020;1271;25447;-49
2022/08/20 00:19:15;;;;;;;14.10;5.90;;;;;;;21.67;81.30;99804.05;106144;1271;22587;-53
2022/08/20 00:21:47;;;;;;;16.00;6.00;;;;;;;21.67;81.28;99803.48;106131;1269;25300;-49
2022/08/20 00:24:19;;;;;;;11.20;4.20;;;;;;;21.67;81.39;99810.33;106107;1271;25663;-49
2022/08/20 00:26:51;;;;;;;16.40;5.80;;;;;;;21.66;81.47;99810.93;106013;1271;25512;-50
2022/08/20 00:29:24;;;;;;;11.50;4.90;;;;;;;21.64;81.53;99809.30;105983;1271;25409;-52
2022/08/20 00:31:55;;;;;;;15.50;5.70;;;;;;;21.62;81.55;99809.27;106061;1271;24461;-49
2022/08/20 00:34:27;;;;;;;15.70;5.40;;;;;;;21.62;81.38;99809.11;106106;1269;24318;-49
2022/08/20 00:37:00;;;;;;;19.80;5.30;;;;;;;21.61;81.36;99816.58;106026;1271;25343;-49
2022/08/20 00:39:32;;;;;;;14.00;4.90;;;;;;;21.58;81.43;99821.01;106013;1269;24388;-50
2022/08/20 00:42:05;;;;;;;13.30;5.50;;;;;;;21.57;81.37;99824.45;106010;1271;22627;-49
2022/08/20 00:44:37;;;;;;;15.20;5.80;;;;;;;21.57;81.25;99823.73;106088;1271;22560;-48
2022/08/20 00:47:09;;;;;;;16.70;5.80;;;;;;;21.56;81.43;99826.01;106102;1271;25241;-50
2022/08/20 00:49:41;;;;;;;16.80;5.10;;;;;;;21.51;81.51;99821.56;106131;1271;22692;-50
2022/08/20 00:52:18;;;;;;;17.20;6.10;;;;;;;21.47;81.35;99818.23;105963;1271;24405;-50
2022/08/20 00:54:53;;;;;;;18.60;6.50;;;;;;;21.45;81.29;99816.05;106037;1271;24302;-49
2022/08/20 00:57:29;;;;;;;14.60;5.70;;;;;;;21.44;81.36;99817.45;105989;1271;22540;-50
2022/08/20 01:00:03;;;;;;;15.00;5.20;;;;;;;21.41;81.29;99823.28;106160;1270;25197;-52
2022/08/20 01:02:34;;;;;;;14.70;4.90;;;;;;;21.39;81.39;99828.39;106157;1270;22688;-50
2022/08/20 01:05:08;;;;;;;19.50;6.60;;;;;;;21.39;81.43;99832.29;106145;1271;23151;-49
2022/08/20 01:07:43;;;;;;;11.10;4.80;;;;;;;21.38;81.41;99839.52;106110;1270;22942;-49
2022/08/20 01:10:21;;;;;;;15.60;5.80;;;;;;;21.38;81.55;99844.40;106089;1271;25190;-50
2022/08/20 01:12:55;;;;;;;17.10;6.10;;;;;;;21.36;81.67;99856.94;106037;1268;25423;-51
2022/08/20 01:15:30;;;;;;;15.90;5.50;;;;;;;21.35;81.67;99858.52;106141;1271;22594;-50
2022/08/20 01:18:03;;;;;;;15.00;5.70;;;;;;;21.33;81.76;99861.46;106147;1271;25744;-49
2022/08/20 01:20:38;;;;;;;15.00;6.60;;;;;;;21.31;82.04;99859.71;106183;1271;24192;-49
2022/08/20 01:23:28;;;;;;;16.00;5.70;;;;;;;21.28;82.22;99855.69;106075;1271;23191;-52
2022/08/20 01:26:06;;;;;;;17.40;6.40;;;;;;;21.24;82.19;99847.96;106156;1270;26512;-49
2022/08/20 01:28:42;;;;;;;16.10;5.70;;;;;;;21.23;82.25;99835.49;106101;1269;24341;-51
2022/08/20 01:31:17;;;;;;;24.50;7.00;;;;;;;21.22;82.50;99832.84;106082;1271;25516;-48
2022/08/20 01:33:50;;;;;;;15.80;5.30;;;;;;;21.17;82.89;99828.17;106196;1271;25594;-48
2022/08/20 01:36:25;;;;;;;16.40;6.50;;;;;;;21.14;82.78;99821.66;106072;1270;22570;-48
2022/08/20 01:38:57;;;;;;;20.20;6.40;;;;;;;21.12;82.91;99814.64;106054;1271;22544;-50
2022/08/20 01:41:52;;;;;;;15.20;6.20;;;;;;;21.08;83.03;99809.30;106249;1271;24409;-51
2022/08/20 01:44:25;;;;;;;16.60;6.00;;;;;;;21.00;83.08;99807.28;106067;1270;22525;-52
2022/08/20 01:46:58;;;;;;;15.00;5.60;;;;;;;20.91;83.31;99803.64;106236;1271;24370;-49
2022/08/20 01:49:34;;;;;;;12.40;6.60;;;;;;;20.80;83.35;99801.70;105993;1271;22714;-50
2022/08/20 01:52:11;;;;;;;14.90;6.90;;;;;;;20.68;83.84;99798.47;106099;1271;24524;-48
2022/08/20 01:54:45;;;;;;;19.30;6.90;;;;;;;20.62;84.13;99795.23;106133;1271;22537;-49
2022/08/20 01:57:19;;;;;;;15.90;6.20;;;;;;;20.60;84.08;99798.16;106102;1271;22699;-51
2022/08/20 01:59:53;;;;;;;22.00;7.20;;;;;;;20.59;84.06;99803.30;106115;1270;25488;-49
2022/08/20 02:02:25;;;;;;;14.80;6.90;;;;;;;20.58;84.08;99807.14;106741;1268;22736;-49
2022/08/20 02:04:59;;;;;;;20.00;7.20;;;;;;;20.57;84.02;99804.95;106372;1271;22604;-49
2022/08/20 02:07:31;;;;;;;16.70;7.40;;;;;;;20.55;84.10;99802.04;106682;1271;22751;-49
2022/08/20 02:10:03;;;;;;;18.40;7.70;;;;;;;20.54;84.32;99805.23;106375;1271;22675;-48
2022/08/20 02:12:35;;;;;;;19.50;7.00;;;;;;;20.54;84.23;99806.98;107099;1261;22602;-60
2022/08/20 02:15:11;;;;;;;14.10;6.50;;;;;;;20.54;84.23;99798.24;106147;1268;22639;-62
2022/08/20 02:17:43;;;;;;;19.30;7.20;;;;;;;20.51;84.26;99797.47;106291;1268;24434;-60
2022/08/20 02:20:17;;;;;;;16.90;6.50;;;;;;;20.51;84.41;99797.38;106257;1268;25455;-61
2022/08/20 02:22:51;;;;;;;15.40;5.70;;;;;;;20.50;84.18;99803.86;106265;1268;22714;-60
2022/08/20 02:25:27;;;;;;;15.90;6.30;;;;;;;20.49;84.31;99798.67;107955;1269;22525;-60
2022/08/20 02:28:01;;;;;;;17.80;7.10;;;;;;;20.48;84.51;99797.23;106076;1270;23077;-61
2022/08/20 02:30:37;;;;;;;17.00;7.80;;;;;;;20.48;84.63;99796.02;106120;1271;22554;-60
2022/08/20 02:33:12;;;;;;;18.60;7.10;;;;;;;20.49;84.80;99786.41;106138;1271;25581;-61
2022/08/20 02:35:45;;;;;;;18.40;6.40;;;;;;;20.49;84.94;99773.70;106077;1270;24212;-62
2022/08/20 02:38:18;;;;;;;16.20;6.60;;;;;;;20.51;85.00;99764.80;106083;1270;25537;-59
2022/08/20 02:40:50;;;;;;;14.70;6.80;;;;;;;20.52;85.41;99762.55;106186;1269;25147;-61
2022/08/20 02:43:22;;;;;;;17.80;7.00;;;;;;;20.53;85.60;99762.02;106230;1269;22551;-62
2022/08/20 02:45:54;;;;;;;16.40;6.40;;;;;;;20.53;85.82;99761.17;106210;1270;25759;-61
2022/08/20 02:48:26;;;;;;;19.70;7.70;;;;;;;20.52;85.79;99755.81;106149;1269;23173;-61
2022/08/20 02:51:00;;;;;;;15.40;6.20;;;;;;;20.49;86.01;99756.63;106199;1270;25477;-59
2022/08/20 02:53:36;;;;;;;24.40;7.90;;;;;;;20.38;86.00;99754.17;106157;1271;25321;-59
2022/08/20 02:56:09;;;;;;;17.10;7.30;;;;;;;20.31;86.08;99753.62;106123;1271;24612;-59
2022/08/20 02:58:42;;;;;;;17.60;6.90;;;;;;;20.28;86.14;99751.15;106138;1271;24728;-61
2022/08/20 03:01:16;;;;;;;13.00;5.90;;;;;;;20.25;86.10;99751.23;106046;1271;22783;-60
2022/08/20 03:03:48;;;;;;;18.70;7.60;;;;;;;20.20;86.30;99745.87;106076;1270;22796;-62
2022/08/20 03:06:21;;;;;;;16.10;6.90;;;;;;;20.14;86.35;99743.59;106139;1271;25455;-60
2022/08/20 03:08:53;;;;;;;20.40;7.90;;;;;;;20.13;86.71;99732.81;106132;1271;26152;-68
2022/08/20 03:11:25;;;;;;;17.40;7.40;;;;;;;20.10;86.82;99730.98;106256;1271;22849;-60
2022/08/20 03:13:57;;;;;;;15.10;7.80;;;;;;;20.08;86.93;99736.56;106093;1270;22555;-62
2022/08/20 03:16:28;;;;;;;16.90;7.20;;;;;;;20.08;87.03;99743.70;106037;1270;25362;-59
2022/08/20 03:19:00;;;;;;;16.00;6.70;;;;;;;20.09;87.02;99748.62;106026;1270;25687;-61
2022/08/20 03:21:32;;;;;;;17.20;7.10;;;;;;;20.12;87.07;99757.75;106113;1270;22609;-61
2022/08/20 03:24:04;;;;;;;21.80;8.90;;;;;;;20.14;87.27;99775.10;106055;1270;25795;-64
2022/08/20 03:26:36;;;;;;;20.70;7.10;;;;;;;20.15;87.35;99792.82;106225;1270;26219;-61
2022/08/20 03:29:07;;;;;;;20.60;7.90;;;;;;;20.17;87.50;99802.36;106096;1270;22570;-61
2022/08/20 03:31:40;;;;;;;20.20;8.50;;;;;;;20.18;87.66;99806.01;106143;1270;24231;-60
2022/08/20 03:34:11;;;;;;;19.70;7.20;;;;;;;20.19;87.54;99813.05;106075;1271;24436;-61
2022/08/20 03:36:43;;;;;;;18.90;8.10;;;;;;;20.21;87.71;99816.16;105989;1270;23143;-61
2022/08/20 03:39:15;;;;;;;15.70;6.90;;;;;;;20.23;87.83;99813.95;106079;1270;25455;-61
2022/08/20 03:41:47;;;;;;;15.60;6.60;;;;;;;20.24;87.82;99804.02;106130;1271;24241;-62
2022/08/20 03:44:18;;;;;;;19.70;8.30;;;;;;;20.25;87.79;99797.54;106155;1270;23958;-61
2022/08/20 03:46:50;;;;;;;16.20;7.40;;;;;;;20.26;88.03;99787.30;106111;1270;22542;-61
2022/08/20 03:49:23;;;;;;;20.70;8.40;;;;;;;20.28;88.16;99779.08;106199;1270;22688;-61
2022/08/20 03:51:54;;;;;;;19.10;7.80;;;;;;;20.30;88.14;99781.09;106068;1270;22687;-61
2022/08/20 03:54:26;;;;;;;20.80;7.90;;;;;;;20.31;88.25;99781.67;106158;1269;22525;-61
2022/08/20 03:56:58;;;;;;;16.30;7.40;;;;;;;20.32;88.35;99782.04;106076;1270;25484;-60
2022/08/20 03:59:31;;;;;;;20.50;6.80;;;;;;;20.32;88.30;99783.64;106214;1270;22622;-61
2022/08/20 04:02:03;;;;;;;16.50;7.30;;;;;;;20.33;88.29;99783.76;106183;1269;22840;-60
2022/08/20 04:04:36;;;;;;;16.90;7.40;;;;;;;20.33;88.31;99782.02;106260;1270;22764;-61
2022/08/20 04:07:14;;;;;;;18.50;7.50;;;;;;;20.34;88.42;99784.37;106132;1270;22538;-61
2022/08/20 04:09:47;;;;;;;16.40;7.70;;;;;;;20.34;88.53;99784.55;106223;1271;25603;-61
2022/08/20 04:12:18;;;;;;;17.30;7.20;;;;;;;20.35;88.52;99780.93;106157;1270;25512;-61
2022/08/20 04:14:50;;;;;;;21.20;8.70;;;;;;;20.36;88.69;99783.88;106046;1271;25399;-60
2022/08/20 04:17:23;;;;;;;14.60;7.50;;;;;;;20.37;88.63;99789.11;106097;1269;24275;-60
2022/08/20 04:19:55;;;;;;;16.70;7.80;;;;;;;20.38;88.52;99789.76;106136;1271;25267;-62
2022/08/20 04:22:27;;;;;;;21.40;7.80;;;;;;;20.39;88.29;99798.38;106250;1270;25657;-62
2022/08/20 04:24:59;;;;;;;17.60;8.20;;;;;;;20.40;88.48;99799.33;106207;1271;22553;-61
2022/08/20 04:27:31;;;;;;;20.00;8.00;;;;;;;20.40;88.46;99803.15;106095;1270;22968;-61
2022/08/20 04:30:04;;;;;;;21.00;9.10;;;;;;;20.40;88.53;99803.38;106074;1270;25095;-59
2022/08/20 04:32:36;;;;;;;18.90;8.10;;;;;;;20.40;88.65;99809.80;106148;1270;26931;-60
2022/08/20 04:35:13;;;;;;;21.50;9.20;;;;;;;20.40;88.63;99817.18;106135;1270;22979;-60
2022/08/20 04:37:46;;;;;;;19.00;8.90;;;;;;;20.41;88.76;99825.34;106112;1270;24425;-61
2022/08/20 04:43:08;;;;;;;21.30;8.50;;;;;;;20.42;88.81;99813.70;105981;1271;22855;-60
2022/08/20 04:45:41;;;;;;;22.10;9.60;;;;;;;20.45;88.67;99802.61;106020;1270;24453;-60
2022/08/20 04:48:13;;;;;;;22.70;8.80;;;;;;;20.46;88.91;99800.48;106081;1270;25787;-61
2022/08/20 04:50:46;;;;;;;26.10;9.60;;;;;;;20.47;88.81;99809.81;106065;1270;24285;-60
2022/08/20 04:53:22;;;;;;;19.00;8.80;;;;;;;20.49;89.09;99820.63;105982;1270;22729;-61
2022/08/20 04:55:55;;;;;;;21.00;9.10;;;;;;;20.51;89.14;99827.19;106096;1271;22628;-61
2022/08/20 04:58:32;;;;;;;24.20;9.80;;;;;;;20.51;89.26;99829.05;106241;1268;22684;-62
2022/08/20 05:01:08;;;;;;;20.30;9.30;;;;;;;20.51;89.38;99825.79;106094;1271;22698;-59
2022/08/20 05:03:41;;;;;;;21.30;9.90;;;;;;;20.52;89.36;99810.25;106007;1270;22536;-62
2022/08/20 05:06:14;;;;;;;25.40;10.40;;;;;;;20.53;89.14;99802.47;105995;1270;22671;-61
2022/08/20 05:08:47;;;;;;;19.50;8.50;;;;;;;20.55;89.20;99812.01;106115;1270;24209;-61
2022/08/20 05:11:20;;;;;;;20.60;9.40;;;;;;;20.57;89.20;99826.70;106009;1270;24312;-61
2022/08/20 05:13:52;;;;;;;22.70;9.40;;;;;;;20.59;89.37;99835.47;106099;1270;22557;-58
2022/08/20 05:16:24;;;;;;;25.00;9.30;;;;;;;20.59;89.48;99827.72;106025;1271;23386;-59
2022/08/20 05:18:56;;;;;;;18.20;8.20;;;;;;;20.58;89.49;99815.73;106169;1270;25332;-59
2022/08/20 05:21:27;;;;;;;19.50;9.40;;;;;;;20.58;89.62;99810.18;106021;1271;25386;-61
2022/08/20 05:23:59;;;;;;;22.90;9.70;;;;;;;20.58;89.69;99807.30;106106;1271;25363;-60
2022/08/20 05:26:32;;;;;;;22.90;10.60;;;;;;;20.56;89.73;99810.42;106067;1270;22839;-61
2022/08/20 05:29:05;;;;;;;26.50;11.40;;;;;;;20.56;90.05;99812.84;106120;1271;22547;-61
2022/08/20 05:31:38;;;;;;;21.00;11.00;;;;;;;20.57;90.12;99818.60;106139;1271;25682;-61
2022/08/20 05:34:11;;;;;;;24.40;10.60;;;;;;;20.57;90.22;99814.33;105971;1271;22614;-59
2022/08/20 05:36:49;;;;;;;20.80;9.20;;;;;;;20.55;90.30;99813.75;105973;1270;22591;-60
2022/08/20 05:39:22;;;;;;;22.90;9.70;;;;;;;20.54;90.32;99810.80;106048;1271;22523;-60
2022/08/20 05:41:54;;;;;;;19.30;9.00;;;;;;;20.54;90.60;99803.95;105974;1271;24167;-61
2022/08/20 05:44:26;;;;;;;21.70;9.60;;;;;;;20.55;90.92;99803.92;105987;1271;25326;-61
2022/08/20 05:46:58;;;;;;;21.80;9.50;;;;;;;20.57;90.94;99810.41;106057;1271;26881;-61
2022/08/20 05:49:29;;;;;;;20.70;9.80;;;;;;;20.61;91.27;99808.23;106305;1270;26682;-61
2022/08/20 05:52:01;;;;;;;21.20;9.90;;;;;;;20.66;91.40;99805.58;106347;1270;24253;-61
2022/08/20 05:54:32;;;;;;;20.70;9.00;;;;;;;20.70;91.57;99807.21;106024;1270;25108;-61
2022/08/20 05:57:04;;;;;;;19.10;8.90;;;;;;;20.72;91.65;99808.47;106134;1270;24293;-62
2022/08/20 05:59:38;;;;;;;19.00;10.40;;;;;;;20.76;91.80;99814.77;106055;1270;22632;-61
2022/08/20 06:04:23;;;;;;;26.30;12.10;;;;;;;20.80;91.90;99813.46;106154;1271;24431;-61
2022/08/20 06:05:01;;;;;;;24.10;9.80;;;;;;;20.84;91.68;99811.21;106067;1270;25644;-61
2022/08/20 06:07:34;;;;;;;20.10;8.50;;;;;;;20.87;91.72;99806.95;106338;1268;24434;-62
2022/08/20 06:10:07;;;;;;;19.40;8.90;;;;;;;20.92;91.98;99810.41;106045;1270;22989;-61
2022/08/20 06:12:39;;;;;;;20.30;10.50;;;;;;;20.97;92.10;99810.52;106310;1269;22546;-62
2022/08/20 06:15:13;;;;;;;25.10;11.70;;;;;;;21.04;92.08;99812.83;106089;1270;22556;-61
2022/08/20 06:17:45;;;;;;;24.80;12.60;;;;;;;21.10;92.41;99812.94;106253;1271;22571;-61
2022/08/20 06:20:16;;;;;;;25.70;13.70;;;;;;;21.17;92.21;99815.20;106126;1269;22559;-61
2022/08/20 06:22:48;;;;;;;25.90;13.90;;;;;;;21.22;92.08;99817.10;106184;1270;25492;-65
2022/08/20 06:25:20;;;;;;;27.60;14.60;;;;;;;21.30;92.35;99819.96;106048;1268;22527;-67
2022/08/20 06:27:52;;;;;;;33.10;18.50;;;;;;;21.38;92.04;99823.99;106108;1270;22659;-61
2022/08/20 06:30:24;;;;;;;36.80;19.30;;;;;;;21.44;91.77;99826.31;106284;1270;22569;-61
2022/08/20 06:32:55;;;;;;;40.80;22.80;;;;;;;21.50;91.73;99829.39;106202;1269;22536;-63
2022/08/20 06:35:27;;;;;;;46.00;28.20;;;;;;;21.54;91.47;99823.68;106083;1270;27518;-62
2022/08/20 06:38:00;;;;;;;46.80;27.80;;;;;;;21.57;91.15;99815.52;106334;1270;25471;-61
2022/08/20 06:40:33;;;;;;;47.40;30.30;;;;;;;21.60;90.92;99814.91;106267;1268;22965;-61
2022/08/20 06:43:08;;;;;;;51.80;29.70;;;;;;;21.63;90.74;99816.66;106306;1270;22530;-62
2022/08/20 06:45:41;;;;;;;43.10;27.70;;;;;;;21.68;90.73;99824.23;106002;1271;26108;-63
2022/08/20 06:48:14;;;;;;;45.20;29.30;;;;;;;21.75;90.95;99831.98;106137;1270;25643;-61
2022/08/20 06:50:48;;;;;;;44.70;28.40;;;;;;;21.80;90.94;99836.58;106173;1271;25257;-62
2022/08/20 06:53:22;;;;;;;47.70;29.50;;;;;;;21.86;90.83;99841.83;106219;1268;25312;-61
2022/08/20 06:55:56;;;;;;;44.10;27.70;;;;;;;21.90;90.04;99838.94;106099;1268;22530;-64
2022/08/20 06:58:30;;;;;;;47.50;29.20;;;;;;;21.90;89.72;99835.38;106305;1268;22531;-62
2022/08/20 07:01:02;;;;;;;48.20;27.70;;;;;;;21.89;89.61;99831.17;106092;1271;24380;-62
2022/08/20 07:03:36;;;;;;;42.50;26.40;;;;;;;21.90;89.44;99828.41;106095;1271;24397;-63
2022/08/20 07:06:10;;;;;;;43.90;26.80;;;;;;;21.91;89.22;99829.67;106278;1271;22527;-63
2022/08/20 07:08:41;;;;;;;41.10;25.20;;;;;;;21.91;88.96;99831.95;106292;1268;24421;-61
2022/08/20 07:11:13;;;;;;;41.80;25.00;;;;;;;21.91;88.83;99831.95;106101;1271;22680;-60
2022/08/20 07:13:45;;;;;;;41.30;26.10;;;;;;;21.91;88.78;99833.69;106218;1268;22729;-62
2022/08/20 07:16:17;;;;;;;42.00;25.20;;;;;;;21.94;88.81;99832.02;106161;1271;25837;-62
2022/08/20 07:18:49;;;;;;;41.50;25.50;;;;;;;21.95;88.49;99834.71;106074;1270;22688;-64
2022/08/20 07:21:21;;;;;;;42.10;25.10;;;;;;;21.96;88.33;99833.12;106136;1271;22525;-61
2022/08/20 07:23:53;;;;;;;44.90;27.20;;;;;;;21.96;88.25;99842.21;102092;1270;5841407;-62
2022/08/20 07:26:25;;;;;;;46.30;28.30;;;;;;;21.96;88.59;99839.08;106063;1270;24279;-64
2022/08/20 07:28:57;;;;;;;45.40;28.90;;;;;;;21.97;88.15;99832.25;106119;1270;24222;-62
2022/08/20 07:34:30;;;;;;;44.90;25.70;;;;;;;22.02;87.85;99835.70;105490;1274;22710;-62
2022/08/20 07:37:02;;;;;;;45.10;26.20;;;;;;;22.05;88.05;99840.46;105762;1273;24460;-64
2022/08/20 07:39:34;;;;;;;44.60;26.60;;;;;;;22.06;87.84;99840.48;105735;1273;22706;-62
2022/08/20 07:42:06;;;;;;;44.20;27.40;;;;;;;22.03;87.63;99839.60;105651;1273;22538;-62
2022/08/20 07:44:38;;;;;;;41.10;26.00;;;;;;;22.02;87.65;99841.45;105603;1273;22650;-64
2022/08/20 07:47:10;;;;;;;50.40;29.30;;;;;;;21.99;87.64;99848.88;105814;1273;22721;-63
2022/08/20 07:49:42;;;;;;;46.90;27.70;;;;;;;21.97;87.54;99846.95;106022;1273;22658;-65
2022/08/20 07:52:14;;;;;;;47.60;27.80;;;;;;;21.98;87.61;99842.21;105671;1273;25542;-62
2022/08/20 07:54:46;;;;;;;46.30;27.20;;;;;;;22.04;87.74;99847.77;105651;1273;24313;-63
2022/08/20 07:57:17;;;;;;;49.70;27.80;;;;;;;22.10;87.72;99845.70;105525;1273;22618;-64
2022/08/20 07:59:50;;;;;;;45.20;26.80;;;;;;;22.16;87.23;99849.48;105549;1273;22529;-61
2022/08/20 08:02:22;;;;;;;45.40;26.30;;;;;;;22.19;87.07;99851.32;105527;1274;22667;-63
2022/08/20 08:04:55;;;;;;;44.20;26.60;;;;;;;22.21;86.81;99853.95;105618;1273;25890;-62
2022/08/20 08:07:28;;;;;;;45.90;24.70;;;;;;;22.22;86.83;99854.60;105677;1273;22534;-61
2022/08/20 08:10:03;;;;;;;44.70;26.50;;;;;;;22.22;86.54;99857.60;105882;1270;24298;-65
2022/08/20 08:12:38;;;;;;;47.00;25.80;;;;;;;22.22;86.35;99860.64;106055;1268;22688;-62
2022/08/20 08:15:15;;;;;;;43.90;24.50;;;;;;;22.26;86.74;99867.45;105966;1270;24233;-62
2022/08/20 08:17:49;;;;;;;41.50;24.50;;;;;;;22.30;86.61;99869.77;107314;1270;25481;-65
2022/08/20 08:20:23;;;;;;;41.30;23.60;;;;;;;22.36;86.35;99871.13;106078;1270;22551;-62
2022/08/20 08:22:56;;;;;;;40.30;23.60;;;;;;;22.43;86.43;99870.10;106223;1268;22591;-63
2022/08/20 08:25:28;;;;;;;38.20;23.70;;;;;;;22.51;86.08;99872.52;105932;1271;25248;-62
2022/08/20 08:28:02;;;;;;;40.30;23.60;;;;;;;22.60;85.93;99874.23;106007;1271;23317;-61
2022/08/20 08:30:33;;;;;;;43.70;26.30;;;;;;;22.70;85.84;99872.05;106070;1271;24768;-64
2022/08/20 08:35:56;;;;;;;36.90;23.60;;;;;;;22.91;85.26;99865.55;105997;1270;22784;-62
2022/08/20 08:38:28;;;;;;;43.40;23.10;;;;;;;23.00;85.13;99863.02;106022;1270;25358;-64
2022/08/20 08:41:04;;;;;;;45.20;24.50;;;;;;;23.10;84.56;99868.59;106137;1271;24262;-62
2022/08/20 08:43:37;;;;;;;42.70;23.40;;;;;;;23.14;84.30;99863.37;106009;1271;22525;-65
2022/08/20 08:46:12;;;;;;;40.00;24.40;;;;;;;23.15;83.81;99865.23;105997;1271;24312;-62
2022/08/20 08:48:48;;;;;;;36.30;21.80;;;;;;;23.17;83.89;99860.39;106111;1270;24345;-64
2022/08/20 08:51:28;;;;;;;37.30;22.00;;;;;;;23.25;84.08;99863.83;105991;1271;22691;-62
2022/08/20 08:54:01;;;;;;;38.30;23.40;;;;;;;23.36;83.64;99862.80;106101;1271;24348;-62
2022/08/20 08:56:34;;;;;;;42.80;24.50;;;;;;;23.43;83.20;99855.33;106046;1270;22549;-63
2022/08/20 08:59:07;;;;;;;35.60;22.80;;;;;;;23.50;83.20;99854.04;106075;1271;22622;-64
2022/08/20 09:01:45;;;;;;;36.20;20.90;;;;;;;23.54;82.65;99858.98;105914;1270;22531;-62
2022/08/20 09:04:20;;;;;;;36.40;21.90;;;;;;;23.60;82.74;99864.54;109831;1269;22439;-63
2022/08/20 09:06:53;;;;;;;35.30;21.00;;;;;;;23.66;82.25;99867.63;109810;1269;22487;-64
2022/08/20 09:09:28;;;;;;;38.20;22.80;;;;;;;23.73;81.94;99869.09;108017;1269;22525;-63
2022/08/20 09:12:08;;;;;;;36.50;22.50;;;;;;;23.78;81.59;99873.20;109842;1269;22396;-63
2022/08/20 09:14:41;;;;;;;35.70;21.90;;;;;;;23.78;81.18;99868.11;107649;1269;25324;-63
2022/08/20 09:17:15;;;;;;;40.30;22.80;;;;;;;23.85;81.39;99861.88;107214;1270;24452;-63
2022/08/20 09:19:47;;;;;;;41.90;23.30;;;;;;;23.99;81.60;99858.23;106134;1271;24234;-62
2022/08/20 09:22:24;;;;;;;33.20;21.40;;;;;;;24.14;81.15;99859.02;106164;1268;22547;-64
2022/08/20 09:24:56;;;;;;;37.40;21.90;;;;;;;24.26;80.60;99858.80;106230;1271;22538;-64
2022/08/20 09:27:30;;;;;;;33.50;20.60;;;;;;;24.35;80.19;99858.64;106130;1270;22612;-65
2022/08/20 09:30:02;;;;;;;34.40;20.80;;;;;;;24.40;79.42;99860.38;106211;1271;25250;-64
2022/08/20 09:32:34;;;;;;;33.20;19.80;;;;;;;24.41;79.13;99860.34;106106;1270;24858;-63
2022/08/20 09:35:07;;;;;;;35.50;21.00;;;;;;;24.39;78.60;99864.01;106187;1269;23243;-65
2022/08/20 09:37:39;;;;;;;33.20;21.20;;;;;;;24.39;78.75;99866.45;106111;1271;22525;-63
2022/08/20 09:40:13;;;;;;;36.50;21.50;;;;;;;24.47;78.78;99859.86;106263;1270;22692;-64
2022/08/20 09:42:45;;;;;;;33.70;20.00;;;;;;;24.55;78.11;99857.23;106053;1271;25570;-62
2022/08/20 09:45:18;;;;;;;30.00;19.70;;;;;;;24.59;77.54;99857.60;106057;1271;26576;-65
2022/08/20 09:47:50;;;;;;;31.90;18.90;;;;;;;24.65;77.71;99856.91;106165;1270;22544;-63
2022/08/20 09:50:23;;;;;;;31.80;19.80;;;;;;;24.65;77.37;99862.69;106186;1270;22674;-63
2022/08/20 09:52:56;;;;;;;32.50;19.90;;;;;;;24.73;77.45;99857.66;106054;1270;22548;-65
2022/08/20 09:55:32;;;;;;;36.90;22.00;;;;;;;24.83;76.75;99855.83;106012;1270;25363;-65
2022/08/20 09:58:07;;;;;;;30.80;18.00;;;;;;;24.88;76.11;99856.34;106065;1270;25401;-65
2022/08/20 10:00:39;;;;;;;30.30;17.50;;;;;;;24.96;76.56;99858.54;106151;1271;25260;-62
2022/08/20 10:03:11;;;;;;;32.30;17.60;;;;;;;25.06;76.39;99864.62;106125;1270;25478;-64
2022/08/20 10:05:43;;;;;;;32.30;19.40;;;;;;;25.15;76.04;99860.94;106119;1270;22989;-63
2022/08/20 10:08:15;;;;;;;28.60;16.50;;;;;;;25.15;75.17;99860.55;106163;1271;25361;-64
2022/08/20 10:10:47;;;;;;;31.40;18.10;;;;;;;25.11;74.31;99862.46;106056;1271;22528;-65
2022/08/20 10:13:19;;;;;;;28.60;17.60;;;;;;;25.08;74.28;99859.98;106215;1270;23087;-63
2022/08/20 10:15:51;;;;;;;29.70;18.30;;;;;;;25.09;74.44;99860.20;106183;1271;22576;-67
2022/08/20 10:18:23;;;;;;;30.70;17.80;;;;;;;25.11;74.27;99860.06;106048;1270;22544;-63
2022/08/20 10:20:56;;;;;;;31.10;19.20;;;;;;;25.14;74.20;99861.86;106123;1271;24218;-64
2022/08/20 10:23:28;;;;;;;30.10;19.50;;;;;;;25.15;73.86;99855.80;106225;1270;22551;-65
2022/08/20 10:25:59;;;;;;;32.30;19.00;;;;;;;25.13;73.56;99855.77;105982;1271;25398;-63
2022/08/20 10:28:31;;;;;;;33.90;19.80;;;;;;;25.11;73.64;99858.35;106227;1271;24260;-66
2022/08/20 10:31:05;;;;;;;32.40;19.60;;;;;;;25.09;73.65;99864.46;106035;1270;22528;-63
2022/08/20 10:33:38;;;;;;;28.80;18.00;;;;;;;25.12;73.52;99863.70;106138;1271;22525;-66
2022/08/20 10:36:14;;;;;;;31.30;17.60;;;;;;;25.16;73.14;99865.19;106325;1271;22691;-63
2022/08/20 10:38:47;;;;;;;28.50;17.40;;;;;;;25.22;73.08;99869.23;106202;1271;22523;-64
2022/08/20 10:41:20;;;;;;;30.60;18.30;;;;;;;25.32;73.43;99868.90;106059;1270;22598;-63
2022/08/20 10:43:52;;;;;;;32.00;17.10;;;;;;;25.40;72.73;99866.86;106067;1270;24354;-63
2022/08/20 10:46:24;;;;;;;31.80;18.60;;;;;;;25.46;72.58;99867.98;106075;1269;25263;-66
2022/08/20 10:48:55;;;;;;;31.90;18.60;;;;;;;25.49;72.66;99867.64;106059;1270;25552;-63
2022/08/20 10:51:27;;;;;;;29.30;17.80;;;;;;;25.55;72.03;99867.44;105948;1270;26523;-66
2022/08/20 10:53:59;;;;;;;28.70;17.00;;;;;;;25.59;71.97;99867.73;106076;1270;23194;-63
2022/08/20 10:56:31;;;;;;;31.60;18.40;;;;;;;25.67;71.97;99873.67;106096;1271;25538;-63
2022/08/20 10:59:02;;;;;;;26.30;16.60;;;;;;;25.73;71.63;99871.95;106126;1270;22534;-67
2022/08/20 11:01:34;;;;;;;25.70;15.90;;;;;;;25.78;71.17;99873.80;106173;1270;25323;-63
2022/08/20 11:04:06;;;;;;;29.90;18.50;;;;;;;25.82;71.22;99871.27;106129;1271;25477;-66
2022/08/20 11:06:37;;;;;;;32.80;16.40;;;;;;;25.88;71.12;99874.17;106019;1270;22554;-65
2022/08/20 11:09:10;;;;;;;33.60;17.30;;;;;;;25.93;71.09;99874.42;106104;1270;22544;-63
2022/08/20 11:11:43;;;;;;;29.00;17.60;;;;;;;25.98;70.92;99874.01;106085;1270;22536;-66
2022/08/20 11:14:14;;;;;;;29.70;15.20;;;;;;;25.99;70.69;99873.07;106076;1270;24375;-63
2022/08/20 11:16:47;;;;;;;33.10;15.10;;;;;;;26.02;70.96;99870.86;105997;1271;26768;-65
2022/08/20 11:19:19;;;;;;;28.60;16.80;;;;;;;26.07;70.74;99871.23;106071;1270;24398;-65
2022/08/20 11:21:51;;;;;;;30.70;17.30;;;;;;;26.10;70.44;99868.35;106013;1270;22696;-63
2022/08/20 11:24:24;;;;;;;28.40;15.30;;;;;;;26.13;69.98;99864.18;106046;1271;26787;-66
2022/08/20 11:26:56;;;;;;;27.60;16.90;;;;;;;26.14;70.03;99865.42;106047;1271;22613;-63
2022/08/20 11:29:28;;;;;;;29.80;16.30;;;;;;;26.15;70.06;99863.20;105930;1270;22761;-67
2022/08/20 11:32:01;;;;;;;33.70;17.80;;;;;;;26.16;69.94;99865.30;106515;1270;24317;-64
2022/08/20 11:34:32;;;;;;;28.40;17.30;;;;;;;26.17;69.98;99854.20;106016;1271;24431;-64
2022/08/20 11:37:05;;;;;;;27.50;16.20;;;;;;;26.16;69.53;99852.42;107030;1269;22544;-67
2022/08/20 11:39:38;;;;;;;29.70;17.10;;;;;;;26.19;69.72;99859.48;109297;1270;51861;-64
2022/08/20 11:42:10;;;;;;;28.10;16.20;;;;;;;26.24;69.43;99865.33;109750;1269;23489;-68
2022/08/20 11:44:42;;;;;;;29.80;15.60;;;;;;;26.31;69.78;99863.45;106258;1271;22544;-64
2022/08/20 11:47:22;;;;;;;29.40;17.10;;;;;;;26.38;69.40;99861.88;106072;1270;25566;-64
2022/08/20 11:50:02;;;;;;;27.80;16.20;;;;;;;26.42;68.94;99855.05;106094;1270;22528;-65